Time;durP1;ratioP1;P1;durP2;ratioP2;P2;SDS_P1;SDS_P2;PMS_P1;PMS_P2;Temp;Humidity;BMP_temperature;BMP_pressure;BME280_temperature;BME280_humidity;BME280_pressure;Samples;Min_cycle;Max_cycle;Signal;HPM_P1;HPM_P2
2023/06/21 00:02:23;;;;;;;2.20;2.00;;;;;;;;;;5114065;28;20549;-83
2023/06/21 00:04:51;;;;;;;1.80;1.70;;;;;;;;;;5113817;28;20329;-83
2023/06/21 00:07:23;;;;;;;2.40;2.20;;;;;;;;;;5114171;28;20206;-82
2023/06/21 00:09:51;;;;;;;2.00;1.90;;;;;;;;;;5113968;28;20224;-82
2023/06/21 00:12:22;;;;;;;1.90;1.80;;;;;;;;;;5113931;28;20203;-82
2023/06/21 00:14:49;;;;;;;2.15;1.95;;;;;;;;;;5114079;28;20203;-82
2023/06/21 00:17:16;;;;;;;2.17;2.08;;;;;;;;;;5114043;28;20203;-82
2023/06/21 00:19:44;;;;;;;2.10;2.00;;;;;;;;;;5113055;28;20220;-83
2023/06/21 00:22:11;;;;;;;2.60;2.40;;;;;;;;;;5114098;28;20203;-82
2023/06/21 00:24:39;;;;;;;2.35;2.15;;;;;;;;;;5113379;28;20286;-82
2023/06/21 00:27:07;;;;;;;2.10;2.00;;;;;;;;;;5113435;28;20573;-82
2023/06/21 00:29:36;;;;;;;2.10;1.90;;;;;;;;;;5113017;28;20222;-82
2023/06/21 00:32:03;;;;;;;2.65;2.30;;;;;;;;;;5112761;28;20206;-82
2023/06/21 00:34:30;;;;;;;2.00;1.90;;;;;;;;;;5112414;28;20214;-82
2023/06/21 00:36:58;;;;;;;3.45;3.17;;;;;;;;;;5112832;28;20223;-82
2023/06/21 00:39:25;;;;;;;7.40;3.25;;;;;;;;;;5113276;28;20234;-82
2023/06/21 00:41:53;;;;;;;3.08;2.88;;;;;;;;;;5113190;28;20203;-83
2023/06/21 00:44:20;;;;;;;2.90;2.70;;;;;;;;;;5112980;28;20688;-82
2023/06/21 00:46:50;;;;;;;3.05;2.75;;;;;;;;;;5113041;28;20660;-82
2023/06/21 00:49:17;;;;;;;3.35;3.15;;;;;;;;;;5112934;28;20219;-82
2023/06/21 00:51:45;;;;;;;3.08;2.88;;;;;;;;;;5113297;28;20195;-81
2023/06/21 00:54:16;;;;;;;2.22;2.13;;;;;;;;;;5113778;28;20200;-82
2023/06/21 00:56:44;;;;;;;2.80;2.53;;;;;;;;;;5114020;28;20262;-83
2023/06/21 00:59:11;;;;;;;2.67;2.47;;;;;;;;;;5113728;28;20222;-82
2023/06/21 01:01:40;;;;;;;4.05;3.08;;;;;;;;;;5111988;28;20202;-83
2023/06/21 01:04:10;;;;;;;2.38;2.20;;;;;;;;;;5104905;28;20199;-82
2023/06/21 01:06:48;;;;;;;2.30;2.20;;;;;;;;;;5107853;28;20276;-83
2023/06/21 01:09:28;;;;;;;3.10;2.80;;;;;;;;;;5110606;28;20795;-83
2023/06/21 01:12:00;;;;;;;2.70;2.50;;;;;;;;;;5101289;28;20674;-82
2023/06/21 01:14:35;;;;;;;2.85;2.65;;;;;;;;;;5112391;28;20577;-82
2023/06/21 01:17:03;;;;;;;2.63;2.42;;;;;;;;;;5113758;28;20219;-82
2023/06/21 01:19:43;;;;;;;3.00;2.80;;;;;;;;;;5113843;28;20309;-82
2023/06/21 01:22:22;;;;;;;2.60;2.40;;;;;;;;;;5113449;28;20272;-83
2023/06/21 01:25:04;;;;;;;5.25;2.55;;;;;;;;;;5113937;28;20237;-82
2023/06/21 01:27:48;;;;;;;1.92;1.83;;;;;;;;;;5101031;28;20567;-83
2023/06/21 01:30:18;;;;;;;2.17;1.98;;;;;;;;;;5092729;28;20285;-82
2023/06/21 01:32:45;;;;;;;2.50;2.30;;;;;;;;;;5092882;28;20196;-82
2023/06/21 01:35:13;;;;;;;3.65;3.20;;;;;;;;;;5099224;28;20789;-83
2023/06/21 01:37:43;;;;;;;4.32;3.10;;;;;;;;;;5112913;28;20222;-82
2023/06/21 01:40:11;;;;;;;3.17;2.97;;;;;;;;;;5113664;28;20234;-82
2023/06/21 01:42:39;;;;;;;3.58;3.28;;;;;;;;;;5113248;28;20493;-83
2023/06/21 01:45:08;;;;;;;4.15;3.78;;;;;;;;;;5112403;28;20200;-82
2023/06/21 01:47:37;;;;;;;3.95;3.63;;;;;;;;;;5111893;28;20636;-83
2023/06/21 01:50:08;;;;;;;3.72;3.42;;;;;;;;;;5112734;28;20730;-82
2023/06/21 01:52:36;;;;;;;4.25;3.53;;;;;;;;;;5101167;28;20283;-82
2023/06/21 01:55:05;;;;;;;3.63;3.33;;;;;;;;;;5091734;28;20200;-81
2023/06/21 01:57:35;;;;;;;3.10;2.90;;;;;;;;;;5092098;28;20243;-83
2023/06/21 02:00:13;;;;;;;3.40;3.15;;;;;;;;;;5091777;28;20273;-82
2023/06/21 02:02:43;;;;;;;2.65;2.47;;;;;;;;;;5092538;28;20200;-82
2023/06/21 02:05:11;;;;;;;2.40;2.20;;;;;;;;;;5099144;28;20287;-82
2023/06/21 02:07:38;;;;;;;2.40;2.30;;;;;;;;;;5111992;28;20217;-82
2023/06/21 02:10:07;;;;;;;2.53;2.40;;;;;;;;;;5112148;28;20219;-82
2023/06/21 02:12:34;;;;;;;2.40;2.28;;;;;;;;;;5111622;28;20234;-82
2023/06/21 02:15:03;;;;;;;3.08;2.88;;;;;;;;;;5112093;28;20206;-82
2023/06/21 02:17:31;;;;;;;2.70;2.50;;;;;;;;;;5112484;28;20220;-82
2023/06/21 02:20:00;;;;;;;3.00;2.80;;;;;;;;;;5112297;28;20650;-82
2023/06/21 02:22:27;;;;;;;2.40;2.30;;;;;;;;;;5111982;28;20704;-82
2023/06/21 02:24:54;;;;;;;2.83;2.63;;;;;;;;;;5111760;28;20196;-82
2023/06/21 02:27:22;;;;;;;3.03;2.83;;;;;;;;;;5111943;28;20211;-82
2023/06/21 02:29:49;;;;;;;2.90;2.70;;;;;;;;;;5112135;28;20723;-82
2023/06/21 02:32:17;;;;;;;2.97;2.78;;;;;;;;;;5112557;28;20202;-82
2023/06/21 02:34:44;;;;;;;2.40;2.25;;;;;;;;;;5112613;28;20211;-81
2023/06/21 02:37:13;;;;;;;3.38;3.10;;;;;;;;;;5113057;28;20215;-83
2023/06/21 02:39:40;;;;;;;4.25;3.83;;;;;;;;;;5112376;28;20228;-82
2023/06/21 02:42:08;;;;;;;3.45;3.25;;;;;;;;;;5104108;28;20196;-82
2023/06/21 02:44:36;;;;;;;4.13;3.80;;;;;;;;;;5112504;28;20579;-82
2023/06/21 02:47:03;;;;;;;4.18;3.78;;;;;;;;;;5112100;28;20694;-81
2023/06/21 02:49:36;;;;;;;4.68;3.92;;;;;;;;;;5111439;28;20719;-81
2023/06/21 02:52:03;;;;;;;3.83;3.53;;;;;;;;;;5112310;28;20674;-80
2023/06/21 02:54:33;;;;;;;3.58;3.38;;;;;;;;;;5112291;28;20206;-82
2023/06/21 02:57:00;;;;;;;3.30;3.00;;;;;;;;;;5114594;28;20246;-82
2023/06/21 02:59:28;;;;;;;3.08;2.78;;;;;;;;;;5115655;28;20220;-81
2023/06/21 03:01:56;;;;;;;4.90;4.50;;;;;;;;;;5115763;28;20200;-82
2023/06/21 03:04:23;;;;;;;3.25;3.05;;;;;;;;;;5115202;28;20226;-82
2023/06/21 03:06:51;;;;;;;4.53;4.13;;;;;;;;;;5095122;28;20196;-82
2023/06/21 03:09:19;;;;;;;4.53;4.22;;;;;;;;;;5094850;28;20224;-81
2023/06/21 03:11:49;;;;;;;5.18;4.47;;;;;;;;;;5095118;28;20204;-82
2023/06/21 03:14:17;;;;;;;4.90;4.50;;;;;;;;;;5095340;28;20397;-82
2023/06/21 03:16:45;;;;;;;5.10;4.30;;;;;;;;;;5095158;28;20208;-82
2023/06/21 03:19:12;;;;;;;3.83;3.53;;;;;;;;;;5095126;28;20251;-83
2023/06/21 03:21:40;;;;;;;4.15;3.75;;;;;;;;;;5094756;28;20207;-81
2023/06/21 03:24:08;;;;;;;4.50;3.58;;;;;;;;;;5095383;28;20250;-82
2023/06/21 03:26:36;;;;;;;4.30;3.90;;;;;;;;;;5095010;28;20295;-82
2023/06/21 03:29:06;;;;;;;4.53;4.15;;;;;;;;;;5094968;28;20672;-82
2023/06/21 03:31:34;;;;;;;5.78;5.28;;;;;;;;;;5095503;28;20249;-83
2023/06/21 03:34:01;;;;;;;5.30;4.80;;;;;;;;;;5095847;28;20240;-82
2023/06/21 03:36:29;;;;;;;3.78;3.47;;;;;;;;;;5111721;28;20199;-81
2023/06/21 03:38:57;;;;;;;3.65;3.35;;;;;;;;;;5114837;28;20707;-82
2023/06/21 03:41:24;;;;;;;4.25;3.95;;;;;;;;;;5115048;28;20203;-82
2023/06/21 03:43:51;;;;;;;5.18;4.70;;;;;;;;;;5114751;28;20578;-82
2023/06/21 03:46:20;;;;;;;3.85;3.53;;;;;;;;;;5114702;28;20286;-82
2023/06/21 03:48:51;;;;;;;4.18;3.47;;;;;;;;;;5114523;28;20195;-82
2023/06/21 03:51:18;;;;;;;4.18;3.78;;;;;;;;;;5114729;28;20199;-82
2023/06/21 03:53:46;;;;;;;4.70;4.07;;;;;;;;;;5114199;28;20291;-82
2023/06/21 03:56:13;;;;;;;4.30;4.00;;;;;;;;;;5114378;28;20195;-82
2023/06/21 03:58:41;;;;;;;4.10;3.70;;;;;;;;;;5114134;28;20223;-82
2023/06/21 04:01:09;;;;;;;3.67;3.20;;;;;;;;;;5114634;28;20224;-81
2023/06/21 04:03:38;;;;;;;4.03;3.75;;;;;;;;;;5113950;28;20200;-82
2023/06/21 04:06:05;;;;;;;2.90;2.70;;;;;;;;;;5113885;28;20302;-82
2023/06/21 04:08:32;;;;;;;3.40;3.20;;;;;;;;;;5113978;28;20202;-82
2023/06/21 04:11:00;;;;;;;2.80;2.60;;;;;;;;;;5113770;28;20215;-82
2023/06/21 04:13:28;;;;;;;2.78;2.60;;;;;;;;;;5105363;28;20200;-81
2023/06/21 04:15:55;;;;;;;2.83;2.63;;;;;;;;;;5105289;28;20210;-81
2023/06/21 04:18:22;;;;;;;2.88;2.67;;;;;;;;;;5113394;28;20640;-81
2023/06/21 04:20:51;;;;;;;4.53;3.00;;;;;;;;;;5115233;27;20711;-82
2023/06/21 04:23:20;;;;;;;2.13;2.03;;;;;;;;;;5113855;28;20286;-81
2023/06/21 04:25:47;;;;;;;3.00;2.20;;;;;;;;;;5117508;28;20231;-82
2023/06/21 04:28:15;;;;;;;2.63;2.45;;;;;;;;;;5120673;28;20203;-82
2023/06/21 04:30:42;;;;;;;3.60;3.30;;;;;;;;;;5120621;28;20292;-81
2023/06/21 04:33:10;;;;;;;3.85;3.55;;;;;;;;;;5120947;28;20567;-82
2023/06/21 04:35:38;;;;;;;3.40;3.20;;;;;;;;;;5121341;28;20702;-82
2023/06/21 04:38:07;;;;;;;3.45;3.15;;;;;;;;;;5121477;28;20228;-82
2023/06/21 04:40:34;;;;;;;2.70;2.50;;;;;;;;;;5119113;28;20617;-82
2023/06/21 04:43:05;;;;;;;4.03;2.78;;;;;;;;;;5118723;28;20294;-82
2023/06/21 04:45:33;;;;;;;4.38;3.88;;;;;;;;;;5118408;28;20280;-82
2023/06/21 04:48:00;;;;;;;4.18;3.88;;;;;;;;;;5116086;28;20199;-81
2023/06/21 04:50:29;;;;;;;4.35;3.95;;;;;;;;;;5118468;28;20230;-81
2023/06/21 04:52:59;;;;;;;4.95;4.55;;;;;;;;;;5115597;28;20242;-82
2023/06/21 04:55:28;;;;;;;5.65;3.90;;;;;;;;;;5115847;28;20203;-81
2023/06/21 04:57:58;;;;;;;3.50;3.20;;;;;;;;;;5114309;28;20245;-82
2023/06/21 05:00:25;;;;;;;3.92;3.63;;;;;;;;;;5117709;28;20263;-82
2023/06/21 05:02:53;;;;;;;4.53;4.13;;;;;;;;;;5114422;28;20199;-81
2023/06/21 05:05:20;;;;;;;5.05;4.65;;;;;;;;;;5112061;27;20287;-82
2023/06/21 05:07:48;;;;;;;5.25;4.85;;;;;;;;;;5132977;27;20750;-80
2023/06/21 05:10:15;;;;;;;4.40;4.05;;;;;;;;;;5132955;27;20219;-80
2023/06/21 05:12:44;;;;;;;3.70;3.40;;;;;;;;;;5132886;27;20199;-81
2023/06/21 05:15:12;;;;;;;4.85;4.45;;;;;;;;;;5133199;27;20199;-82
2023/06/21 05:17:39;;;;;;;5.28;4.88;;;;;;;;;;5132892;27;20581;-80
2023/06/21 05:20:09;;;;;;;6.82;6.05;;;;;;;;;;5130575;27;20302;-80
2023/06/21 05:22:36;;;;;;;6.40;5.82;;;;;;;;;;5106929;28;20585;-79
2023/06/21 05:25:04;;;;;;;4.72;4.43;;;;;;;;;;5101640;28;20200;-80
2023/06/21 05:27:32;;;;;;;5.88;5.07;;;;;;;;;;5112388;28;20211;-79
2023/06/21 05:30:01;;;;;;;7.15;6.60;;;;;;;;;;5109408;28;20238;-80
2023/06/21 05:32:29;;;;;;;5.25;4.60;;;;;;;;;;5106463;28;20191;-79
2023/06/21 05:34:56;;;;;;;5.47;5.07;;;;;;;;;;5126941;27;20229;-80
2023/06/21 05:37:24;;;;;;;5.43;5.03;;;;;;;;;;5112020;28;20199;-80
2023/06/21 05:39:52;;;;;;;5.20;4.70;;;;;;;;;;5111629;28;20603;-80
2023/06/21 05:42:19;;;;;;;5.88;5.38;;;;;;;;;;5105428;28;20211;-79
2023/06/21 05:44:47;;;;;;;5.65;5.25;;;;;;;;;;5132389;27;20597;-80
2023/06/21 05:47:15;;;;;;;6.18;4.93;;;;;;;;;;5132916;27;20201;-80
2023/06/21 05:49:43;;;;;;;4.53;4.00;;;;;;;;;;5132567;27;20211;-80
2023/06/21 05:52:10;;;;;;;5.80;5.30;;;;;;;;;;5132829;28;20195;-81
2023/06/21 05:54:41;;;;;;;6.13;5.63;;;;;;;;;;5132253;28;20696;-81
2023/06/21 05:57:09;;;;;;;5.03;4.63;;;;;;;;;;5132862;28;20226;-80
2023/06/21 05:59:36;;;;;;;8.05;7.35;;;;;;;;;;5132320;27;20225;-81
2023/06/21 06:02:06;;;;;;;6.68;6.07;;;;;;;;;;5132324;28;20202;-81
2023/06/21 06:04:36;;;;;;;5.90;5.32;;;;;;;;;;5131230;28;20234;-80
2023/06/21 06:07:05;;;;;;;5.05;4.65;;;;;;;;;;5104193;28;20257;-82
2023/06/21 06:09:32;;;;;;;4.78;4.38;;;;;;;;;;5091275;28;20597;-82
2023/06/21 06:12:00;;;;;;;5.32;4.82;;;;;;;;;;5091626;28;20204;-81
2023/06/21 06:14:27;;;;;;;4.80;4.32;;;;;;;;;;5101359;28;20204;-81
2023/06/21 06:16:54;;;;;;;4.63;4.32;;;;;;;;;;5106116;28;20199;-82
2023/06/21 06:19:22;;;;;;;4.30;3.97;;;;;;;;;;5109367;28;20223;-81
2023/06/21 06:21:51;;;;;;;4.25;3.95;;;;;;;;;;5112233;28;20286;-81
2023/06/21 06:24:18;;;;;;;3.70;3.40;;;;;;;;;;5112196;28;20306;-81
2023/06/21 06:26:46;;;;;;;3.42;3.13;;;;;;;;;;5111929;28;20298;-81
2023/06/21 06:29:13;;;;;;;3.97;2.85;;;;;;;;;;5111531;28;20219;-81
2023/06/21 06:31:40;;;;;;;4.45;3.97;;;;;;;;;;5110280;28;20630;-82
2023/06/21 06:34:08;;;;;;;2.83;2.63;;;;;;;;;;5106416;28;20644;-81
2023/06/21 06:36:35;;;;;;;2.67;2.47;;;;;;;;;;5130039;27;20291;-82
2023/06/21 06:39:06;;;;;;;3.15;2.95;;;;;;;;;;5135250;27;20229;-81
2023/06/21 06:41:33;;;;;;;2.72;2.53;;;;;;;;;;5136450;27;20293;-81
2023/06/21 06:44:01;;;;;;;3.15;2.85;;;;;;;;;;5124814;27;20579;-82
2023/06/21 06:46:28;;;;;;;3.13;2.92;;;;;;;;;;5115185;28;20223;-81
2023/06/21 06:48:55;;;;;;;2.92;2.72;;;;;;;;;;5114924;28;20210;-82
2023/06/21 06:51:23;;;;;;;2.72;2.53;;;;;;;;;;5114968;28;20316;-81
2023/06/21 06:53:50;;;;;;;3.38;3.08;;;;;;;;;;5115060;28;20206;-80
2023/06/21 06:56:19;;;;;;;2.70;2.50;;;;;;;;;;5114982;28;20840;-81
2023/06/21 06:58:46;;;;;;;2.10;2.00;;;;;;;;;;5115054;28;20199;-82
2023/06/21 07:01:15;;;;;;;2.13;2.00;;;;;;;;;;5110988;28;20206;-81
2023/06/21 07:03:42;;;;;;;2.00;1.90;;;;;;;;;;5108540;28;20201;-81
2023/06/21 07:06:10;;;;;;;3.22;2.92;;;;;;;;;;5108110;28;20655;-83
2023/06/21 07:08:42;;;;;;;4.65;3.05;;;;;;;;;;5110899;27;20733;-83
2023/06/21 07:11:10;;;;;;;3.08;2.88;;;;;;;;;;5124339;27;20223;-82
2023/06/21 07:13:39;;;;;;;2.90;2.70;;;;;;;;;;5107506;28;20203;-81
2023/06/21 07:16:06;;;;;;;3.00;2.80;;;;;;;;;;5114721;28;20209;-82
2023/06/21 07:18:34;;;;;;;2.67;2.47;;;;;;;;;;5106360;28;20282;-82
2023/06/21 07:21:02;;;;;;;3.38;3.08;;;;;;;;;;5114421;28;20237;-83
2023/06/21 07:23:30;;;;;;;3.13;2.90;;;;;;;;;;5115061;28;20750;-82
2023/06/21 07:25:57;;;;;;;3.30;3.08;;;;;;;;;;5115060;28;20199;-83
2023/06/21 07:28:25;;;;;;;3.22;2.97;;;;;;;;;;5106193;28;20216;-82
2023/06/21 07:30:54;;;;;;;3.30;3.00;;;;;;;;;;5114812;28;20227;-83
2023/06/21 07:33:21;;;;;;;3.50;3.30;;;;;;;;;;5114314;28;20286;-84
2023/06/21 07:35:49;;;;;;;3.47;3.17;;;;;;;;;;5114601;28;20203;-83
2023/06/21 07:38:16;;;;;;;3.58;3.38;;;;;;;;;;5114441;28;20203;-83
2023/06/21 07:40:44;;;;;;;3.60;3.30;;;;;;;;;;5114041;28;20227;-84
2023/06/21 07:43:11;;;;;;;3.95;3.65;;;;;;;;;;5113866;28;20295;-84
2023/06/21 07:45:40;;;;;;;3.10;2.90;;;;;;;;;;5114594;28;20206;-84
2023/06/21 07:48:09;;;;;;;2.97;2.78;;;;;;;;;;5113950;28;20686;-83
2023/06/21 07:50:36;;;;;;;3.20;3.00;;;;;;;;;;5106203;28;20729;-84
2023/06/21 07:53:04;;;;;;;3.08;2.88;;;;;;;;;;5113980;28;20203;-83
2023/06/21 07:55:31;;;;;;;3.88;3.58;;;;;;;;;;5114097;28;20295;-84
2023/06/21 07:57:59;;;;;;;3.50;3.30;;;;;;;;;;5113571;28;20286;-84
2023/06/21 08:00:26;;;;;;;4.55;3.00;;;;;;;;;;5113659;28;20322;-84
2023/06/21 08:02:54;;;;;;;4.68;3.35;;;;;;;;;;5113559;28;20206;-83
2023/06/21 08:05:23;;;;;;;2.72;2.53;;;;;;;;;;5112765;28;20223;-82
2023/06/21 08:07:50;;;;;;;2.88;2.67;;;;;;;;;;5113614;28;20286;-83
2023/06/21 08:10:18;;;;;;;3.50;3.20;;;;;;;;;;5114116;28;20319;-85
2023/06/21 08:12:45;;;;;;;2.70;2.58;;;;;;;;;;5112405;28;20200;-83
2023/06/21 08:15:13;;;;;;;4.32;3.92;;;;;;;;;;5113770;28;20226;-84
2023/06/21 08:17:40;;;;;;;3.38;3.08;;;;;;;;;;5113365;28;20196;-83
2023/06/21 08:20:09;;;;;;;3.88;3.53;;;;;;;;;;5113366;28;20575;-83
2023/06/21 08:22:38;;;;;;;3.10;2.90;;;;;;;;;;5113620;28;20204;-82
2023/06/21 08:25:06;;;;;;;3.40;3.20;;;;;;;;;;5113687;28;20310;-84
2023/06/21 08:27:34;;;;;;;3.33;3.03;;;;;;;;;;5113126;28;20208;-84
2023/06/21 08:30:02;;;;;;;3.55;3.30;;;;;;;;;;5113273;28;20219;-83
2023/06/21 08:32:29;;;;;;;5.18;4.78;;;;;;;;;;5109625;28;20279;-83
2023/06/21 08:34:56;;;;;;;3.33;3.13;;;;;;;;;;5119183;27;20206;-82
2023/06/21 08:37:25;;;;;;;3.33;3.03;;;;;;;;;;5113186;28;20200;-83
2023/06/21 08:39:55;;;;;;;3.20;3.00;;;;;;;;;;5112946;28;20670;-83
2023/06/21 08:42:23;;;;;;;3.42;3.22;;;;;;;;;;5113398;28;20234;-83
2023/06/21 08:44:50;;;;;;;3.80;3.53;;;;;;;;;;5113918;28;20211;-83
2023/06/21 08:47:19;;;;;;;3.45;3.25;;;;;;;;;;5112921;28;20242;-84
2023/06/21 08:49:49;;;;;;;4.22;3.92;;;;;;;;;;5112793;28;20290;-83
2023/06/21 08:52:20;;;;;;;3.38;3.15;;;;;;;;;;5113242;28;20663;-82
2023/06/21 08:54:55;;;;;;;3.42;3.13;;;;;;;;;;5112417;28;20207;-83
2023/06/21 08:57:24;;;;;;;4.10;3.80;;;;;;;;;;5113685;28;20207;-85
2023/06/21 08:59:55;;;;;;;4.20;3.90;;;;;;;;;;5112731;28;20306;-83
2023/06/21 09:02:33;;;;;;;3.40;3.20;;;;;;;;;;5112878;28;20216;-82
2023/06/21 09:05:07;;;;;;;4.30;4.00;;;;;;;;;;5112767;28;20290;-83
2023/06/21 09:07:35;;;;;;;4.25;3.85;;;;;;;;;;5112792;28;20963;-83
2023/06/21 09:10:06;;;;;;;4.05;3.75;;;;;;;;;;5112884;28;20246;-81
2023/06/21 09:12:35;;;;;;;6.15;5.65;;;;;;;;;;5112520;28;20721;-83
2023/06/21 09:15:04;;;;;;;4.43;4.13;;;;;;;;;;5112752;28;20342;-82
2023/06/21 09:17:31;;;;;;;3.88;3.58;;;;;;;;;;5112518;28;20203;-82
2023/06/21 09:19:59;;;;;;;3.60;3.40;;;;;;;;;;5112040;28;20832;-82
2023/06/21 09:22:27;;;;;;;3.75;3.47;;;;;;;;;;5111861;28;20306;-83
2023/06/21 09:24:55;;;;;;;3.88;3.58;;;;;;;;;;5112637;28;20666;-82
2023/06/21 09:27:24;;;;;;;6.70;6.10;;;;;;;;;;5112083;28;20459;-81
2023/06/21 09:29:51;;;;;;;5.07;4.68;;;;;;;;;;5112104;28;20215;-82
2023/06/21 09:32:19;;;;;;;4.00;3.70;;;;;;;;;;5112236;28;20227;-83
2023/06/21 09:34:47;;;;;;;5.45;5.05;;;;;;;;;;5112335;28;20294;-83
2023/06/21 09:37:32;;;;;;;5.53;5.07;;;;;;;;;;5111477;28;20196;-83
2023/06/21 09:40:00;;;;;;;4.07;3.78;;;;;;;;;;5112160;28;20733;-83
2023/06/21 09:42:29;;;;;;;4.25;3.95;;;;;;;;;;5112083;28;20655;-84
2023/06/21 09:44:56;;;;;;;4.57;4.18;;;;;;;;;;5112227;28;20290;-85
2023/06/21 09:47:24;;;;;;;5.40;5.00;;;;;;;;;;5110012;28;20223;-83
2023/06/21 09:49:51;;;;;;;4.32;4.03;;;;;;;;;;5105799;28;20302;-83
2023/06/21 09:52:23;;;;;;;3.85;3.55;;;;;;;;;;5112303;28;20206;-82
2023/06/21 09:54:51;;;;;;;4.05;3.78;;;;;;;;;;5112072;28;20214;-83
2023/06/21 09:57:18;;;;;;;4.43;4.13;;;;;;;;;;5111909;28;20229;-83
2023/06/21 09:59:50;;;;;;;4.07;3.78;;;;;;;;;;5111894;28;20219;-84
2023/06/21 10:02:17;;;;;;;4.35;4.05;;;;;;;;;;5112689;28;20230;-83
2023/06/21 10:04:46;;;;;;;4.82;4.43;;;;;;;;;;5112644;28;20660;-83
2023/06/21 10:07:14;;;;;;;4.57;4.20;;;;;;;;;;5116485;28;20202;-82
2023/06/21 10:09:43;;;;;;;4.35;4.03;;;;;;;;;;5116226;28;20300;-83
2023/06/21 10:12:12;;;;;;;4.82;4.43;;;;;;;;;;5116619;28;20198;-83
2023/06/21 10:14:41;;;;;;;4.22;3.92;;;;;;;;;;5116250;28;20195;-83
2023/06/21 10:17:12;;;;;;;5.40;5.00;;;;;;;;;;5116380;28;20213;-83
2023/06/21 10:19:44;;;;;;;5.57;5.18;;;;;;;;;;5116029;28;20219;-82
2023/06/21 10:22:15;;;;;;;4.10;3.80;;;;;;;;;;5116011;28;20280;-82
2023/06/21 10:24:46;;;;;;;4.70;4.38;;;;;;;;;;5116083;28;20204;-83
2023/06/21 10:27:15;;;;;;;4.22;3.92;;;;;;;;;;5116027;28;20200;-83
2023/06/21 10:29:45;;;;;;;4.53;4.20;;;;;;;;;;5115862;28;20582;-84
2023/06/21 10:32:14;;;;;;;5.90;5.50;;;;;;;;;;5116263;28;20292;-83
2023/06/21 10:34:52;;;;;;;5.38;4.97;;;;;;;;;;5115446;28;20238;-85
2023/06/21 10:37:28;;;;;;;4.80;4.40;;;;;;;;;;5116029;28;20554;-84
2023/06/21 10:40:04;;;;;;;5.63;5.22;;;;;;;;;;5115774;28;20238;-83
2023/06/21 10:42:32;;;;;;;6.07;5.53;;;;;;;;;;5115853;28;20303;-84
2023/06/21 10:45:00;;;;;;;5.82;5.32;;;;;;;;;;5115166;28;20579;-83
2023/06/21 10:47:29;;;;;;;5.82;5.28;;;;;;;;;;5115927;28;20204;-84
2023/06/21 10:49:59;;;;;;;4.75;4.30;;;;;;;;;;5115710;28;20310;-83
2023/06/21 10:52:29;;;;;;;4.35;4.05;;;;;;;;;;5115665;28;20283;-82
2023/06/21 10:54:58;;;;;;;3.75;3.55;;;;;;;;;;5116021;28;20203;-82
2023/06/21 10:57:26;;;;;;;4.70;4.35;;;;;;;;;;5115265;28;20203;-82
2023/06/21 10:59:55;;;;;;;4.43;4.13;;;;;;;;;;5115470;28;20235;-82
2023/06/21 11:02:23;;;;;;;4.38;4.07;;;;;;;;;;5115303;28;20314;-83
2023/06/21 11:05:17;;;;;;;4.07;3.80;;;;;;;;;;5115771;28;20301;-82
2023/06/21 11:07:56;;;;;;;4.00;3.70;;;;;;;;;;5117349;28;20214;-82
2023/06/21 11:10:32;;;;;;;4.70;4.40;;;;;;;;;;5119281;28;20215;-84
2023/06/21 11:12:59;;;;;;;5.72;5.28;;;;;;;;;;5116220;28;20663;-83
2023/06/21 11:15:28;;;;;;;4.30;4.00;;;;;;;;;;5115120;28;20199;-83
2023/06/21 11:18:01;;;;;;;4.50;4.13;;;;;;;;;;5113876;28;20192;-82
2023/06/21 11:20:34;;;;;;;5.18;4.78;;;;;;;;;;5115261;28;20223;-83
2023/06/21 11:23:08;;;;;;;5.07;4.68;;;;;;;;;;5115194;28;20310;-83
2023/06/21 11:25:37;;;;;;;4.80;4.50;;;;;;;;;;5115131;28;20195;-82
2023/06/21 11:28:23;;;;;;;5.03;4.63;;;;;;;;;;5114651;28;20207;-83
2023/06/21 11:31:12;;;;;;;4.90;4.50;;;;;;;;;;5114144;28;20246;-82
2023/06/21 11:33:54;;;;;;;4.07;3.78;;;;;;;;;;5115026;28;20209;-82
2023/06/21 11:36:29;;;;;;;3.88;3.58;;;;;;;;;;5114625;28;20207;-82
2023/06/21 11:39:19;;;;;;;4.75;4.45;;;;;;;;;;5114434;28;20187;-84
2023/06/21 11:42:00;;;;;;;4.70;4.30;;;;;;;;;;5114785;28;20192;-82
2023/06/21 11:44:30;;;;;;;5.03;4.70;;;;;;;;;;5114493;28;20282;-82
2023/06/21 11:47:18;;;;;;;4.03;3.75;;;;;;;;;;5114605;28;20210;-82
2023/06/21 11:49:52;;;;;;;3.92;3.65;;;;;;;;;;5114453;28;20306;-82
2023/06/21 11:52:33;;;;;;;3.95;3.60;;;;;;;;;;5114608;28;20207;-81
2023/06/21 11:55:12;;;;;;;4.55;4.25;;;;;;;;;;5114373;28;20206;-82
2023/06/21 11:57:45;;;;;;;4.03;3.72;;;;;;;;;;5113479;28;20203;-81
2023/06/21 12:00:14;;;;;;;4.88;4.57;;;;;;;;;;5113741;28;20224;-82
2023/06/21 12:02:41;;;;;;;4.35;4.05;;;;;;;;;;5113589;28;20927;-82
2023/06/21 12:05:09;;;;;;;4.45;4.15;;;;;;;;;;5113514;28;20207;-82
2023/06/21 12:07:38;;;;;;;5.43;5.03;;;;;;;;;;5113150;28;20291;-82
2023/06/21 12:10:07;;;;;;;5.22;4.93;;;;;;;;;;5113531;28;20215;-82
2023/06/21 12:12:34;;;;;;;5.10;4.70;;;;;;;;;;5113297;28;20210;-82
2023/06/21 12:15:03;;;;;;;5.03;4.63;;;;;;;;;;5113410;28;20200;-82
2023/06/21 12:17:30;;;;;;;6.10;5.43;;;;;;;;;;5113355;28;20249;-82
2023/06/21 12:20:06;;;;;;;5.00;4.60;;;;;;;;;;5112905;28;20593;-80
2023/06/21 12:22:34;;;;;;;5.10;4.70;;;;;;;;;;5113396;28;20261;-83
2023/06/21 12:25:03;;;;;;;5.68;5.18;;;;;;;;;;5112433;28;20341;-85
2023/06/21 12:27:30;;;;;;;5.47;5.05;;;;;;;;;;5113270;28;20231;-81
2023/06/21 12:29:58;;;;;;;5.82;5.35;;;;;;;;;;5113865;28;20223;-83
2023/06/21 12:32:25;;;;;;;5.85;5.45;;;;;;;;;;5113399;28;20575;-85
2023/06/21 12:35:01;;;;;;;5.60;5.20;;;;;;;;;;5113501;28;20290;-82
2023/06/21 12:37:29;;;;;;;5.15;4.75;;;;;;;;;;5113759;28;20211;-82
2023/06/21 12:39:57;;;;;;;5.47;4.97;;;;;;;;;;5131649;22;21516;-82
2023/06/21 12:42:30;;;;;;;5.70;5.28;;;;;;;;;;5104864;28;20189;-82
2023/06/21 12:44:58;;;;;;;5.68;5.28;;;;;;;;;;5089621;28;20208;-81
2023/06/21 12:47:26;;;;;;;5.32;4.85;;;;;;;;;;5096038;28;20200;-80
2023/06/21 12:50:00;;;;;;;5.60;5.18;;;;;;;;;;5095346;28;20228;-81
2023/06/21 12:52:28;;;;;;;5.65;5.25;;;;;;;;;;5097058;28;20196;-81
2023/06/21 12:54:56;;;;;;;5.75;5.25;;;;;;;;;;5099719;28;20200;-81
2023/06/21 12:57:29;;;;;;;5.75;5.25;;;;;;;;;;5099312;28;20263;-80
2023/06/21 12:59:57;;;;;;;5.90;5.40;;;;;;;;;;5097392;28;20223;-81
2023/06/21 13:02:27;;;;;;;5.30;4.90;;;;;;;;;;5106747;28;20200;-82
2023/06/21 13:04:58;;;;;;;6.03;5.43;;;;;;;;;;5096656;28;20201;-82
2023/06/21 13:07:25;;;;;;;6.20;5.60;;;;;;;;;;5074733;28;20672;-81
2023/06/21 13:09:53;;;;;;;5.05;4.65;;;;;;;;;;5075066;28;20252;-81
2023/06/21 13:12:20;;;;;;;4.65;4.25;;;;;;;;;;5074605;28;20240;-81
2023/06/21 13:14:49;;;;;;;5.78;5.28;;;;;;;;;;5091765;28;20658;-80
2023/06/21 13:17:16;;;;;;;5.63;5.15;;;;;;;;;;5094657;28;20728;-81
2023/06/21 13:19:47;;;;;;;5.20;4.80;;;;;;;;;;5094733;28;20282;-80
2023/06/21 13:22:14;;;;;;;4.57;4.22;;;;;;;;;;5096946;28;20200;-80
2023/06/21 13:24:42;;;;;;;4.95;4.55;;;;;;;;;;5095756;28;20313;-83
2023/06/21 13:27:09;;;;;;;5.25;4.85;;;;;;;;;;5094186;28;20280;-82
2023/06/21 13:29:37;;;;;;;4.35;4.05;;;;;;;;;;5095871;28;20200;-81
2023/06/21 13:32:06;;;;;;;4.07;3.78;;;;;;;;;;5094489;28;20758;-81
2023/06/21 13:34:34;;;;;;;4.05;3.75;;;;;;;;;;5094394;28;20243;-82
2023/06/21 13:37:02;;;;;;;4.63;4.32;;;;;;;;;;5094027;28;20731;-83
2023/06/21 13:39:29;;;;;;;5.57;5.18;;;;;;;;;;5093567;28;20672;-82
2023/06/21 13:41:57;;;;;;;7.00;6.30;;;;;;;;;;5094303;28;20207;-81
2023/06/21 13:44:24;;;;;;;5.22;4.82;;;;;;;;;;5093286;28;20310;-83
2023/06/21 13:46:52;;;;;;;5.25;4.85;;;;;;;;;;5094230;28;20289;-83
2023/06/21 13:49:20;;;;;;;6.40;5.90;;;;;;;;;;5093879;28;20594;-83
2023/06/21 13:51:48;;;;;;;5.85;5.35;;;;;;;;;;5093031;28;20228;-81
2023/06/21 13:54:15;;;;;;;5.60;5.20;;;;;;;;;;5093343;28;20193;-81
2023/06/21 13:56:43;;;;;;;6.60;6.10;;;;;;;;;;5093074;28;20682;-82
2023/06/21 13:59:10;;;;;;;6.50;6.03;;;;;;;;;;5093238;28;20295;-81
2023/06/21 14:01:38;;;;;;;7.10;6.07;;;;;;;;;;5093449;28;20224;-82
2023/06/21 14:04:05;;;;;;;6.25;5.75;;;;;;;;;;5093749;28;20661;-82
2023/06/21 14:06:34;;;;;;;6.00;5.50;;;;;;;;;;5093838;28;20563;-81
2023/06/21 14:09:02;;;;;;;5.38;4.97;;;;;;;;;;5092580;28;20642;-82
2023/06/21 14:11:29;;;;;;;4.70;4.40;;;;;;;;;;5093012;28;20703;-81
2023/06/21 14:13:57;;;;;;;4.82;4.50;;;;;;;;;;5092080;28;20280;-82
2023/06/21 14:16:24;;;;;;;4.10;3.80;;;;;;;;;;5091952;28;20218;-81
2023/06/21 14:18:51;;;;;;;3.75;3.45;;;;;;;;;;5092585;28;20210;-82
2023/06/21 14:21:19;;;;;;;3.92;3.63;;;;;;;;;;5092472;28;20307;-82
2023/06/21 14:23:48;;;;;;;5.40;4.95;;;;;;;;;;5092023;28;20230;-82
2023/06/21 14:26:15;;;;;;;5.40;5.00;;;;;;;;;;5092892;28;20200;-82
2023/06/21 14:28:43;;;;;;;5.82;5.35;;;;;;;;;;5092186;28;20284;-81
2023/06/21 14:31:10;;;;;;;6.00;5.53;;;;;;;;;;5092947;28;20220;-83
2023/06/21 14:33:38;;;;;;;6.43;5.93;;;;;;;;;;5092689;28;20224;-83
2023/06/21 14:36:06;;;;;;;6.32;5.82;;;;;;;;;;5093215;28;20641;-81
2023/06/21 14:38:36;;;;;;;5.93;5.30;;;;;;;;;;5093015;28;20300;-83
2023/06/21 14:41:05;;;;;;;7.35;6.78;;;;;;;;;;5093084;28;20225;-82
2023/06/21 14:43:33;;;;;;;6.40;6.00;;;;;;;;;;5093391;28;20211;-84
2023/06/21 14:46:00;;;;;;;6.78;6.28;;;;;;;;;;5093565;28;20196;-81
2023/06/21 14:48:28;;;;;;;5.35;4.95;;;;;;;;;;5092677;28;20295;-82
2023/06/21 14:50:55;;;;;;;5.32;4.93;;;;;;;;;;5084063;28;20288;-81
2023/06/21 14:53:23;;;;;;;6.25;5.65;;;;;;;;;;5094580;28;20212;-82
2023/06/21 14:55:50;;;;;;;7.00;6.43;;;;;;;;;;5095879;28;20275;-84